Hauptseite
METAR-TAF:

METAR-TAF

Flughäfen :

Farnborough, England

Farnborough Airfield

Breite: 51-17N, Länge: 000-46W, Höhe: 65 m

Beobachtung

Neuester Wetterbericht von vor 10 Minuten, um 09:50 UTC
Wind 14 kt aus Ost/Nordost
Temperatur 1°C
Luftfeuchtigkeit 69%
Luftdruck 1027 hPa
Sichtweite 10 km oder mehr
keine Wolken unter 1500 m und keine Kumulonimbus oder Gewitterwolken

METAR: EGLF 250950Z 07014KT CAVOK 01/M04 Q1027

Zeit: 10:00 (10:00 UTC)

Prognose

Neuester Wetterbericht von vor 1 Stunde und 30 Minuten, um 08:30 UTC
Gültige Prognose vom 25 um 08 UTC bis 25 um 15 UTC
Wind 12 kt aus Ost
Sichtweite 10 km oder mehr
Leicht bewölkt in der Höhe von 4500 ft

TAF: EGLF 250830Z 2508/2515 08012KT 9999 FEW045

Wetterbeobachtungen und Prognosen von mehr als 4000 Flughäfen (METAR und TAF Bericht).

Die verfügbaren Stationen werden durch gelbe und rote Markierungen auf der Karte dargestellt.

Führen Sie die Maus auf sie, um den Namen der Station zu sehen.

Darauf klicken, um die Beobachtung von Wetterbeobachtungen und Prognosen zu sehen.

Um die Karte zu ändern : klicken Sie auf den grünen Tasten mit einem schwarzen Kreuz Zum Vergrößern, auf den grünen Button mit einem Gedankenstrich zu verkleinern, oder auf die grünen Pfeile für benachbarte Karten.


METAR-TAF: